.
WxDataArchive / Data Records for 2013-10-09
2013-10-08 October 2013 2013-10-10

Data Records for Wednesday, 09 October 2013

Time	Temp	Chill	HIndex	Humid	Dewpt	 Wind 	HiWind	WindDir	Rain 	Barom 
-----	----	-----	------	-----	-----	------	------	-------	-----	----- 
00:00	46.8	46.8	46.8	88	43.4	0	0	---	0.00	30.232 
00:05	46.8	46.8	46.8	88	43.4	0	0	---	0.00	30.232 
00:10	46.7	46.7	46.7	89	43.6	0	0	---	0.00	30.232 
00:15	46.5	46.5	46.5	89	43.4	0	0	---	0.00	30.229 
00:20	46.4	46.4	46.4	89	43.3	0	0	---	0.00	30.229 
00:25	46.2	46.2	46.2	90	43.4	0	0	---	0.00	30.229 
00:30	46.2	46.2	46.2	90	43.4	0	0	---	0.00	30.224 
00:35	46.1	46.1	46.1	90	43.3	0	0	---	0.00	30.224 
00:40	46.0	46.0	46.0	90	43.2	0	0	---	0.00	30.224 
00:45	45.7	45.7	45.7	90	42.9	0	0	---	0.00	30.219 
00:50	45.5	45.5	45.5	90	42.7	0	1	112	0.00	30.219 
00:55	45.5	45.5	45.5	91	43.0	0	0	---	0.00	30.219 
01:00	45.4	45.4	45.4	91	42.9	0	0	---	0.00	30.224 
01:05	45.2	45.2	45.2	91	42.7	0	0	---	0.00	30.224 
01:10	45.1	45.1	45.1	91	42.6	0	0	---	0.00	30.224 
01:15	45.1	45.1	45.1	90	42.3	0	0	---	0.00	30.222 
01:20	45.1	45.1	45.1	90	42.3	0	0	---	0.00	30.222 
01:25	45.1	45.1	45.1	90	42.3	0	0	---	0.00	30.222 
01:30	44.9	44.9	44.9	90	42.1	0	0	---	0.00	30.222 
01:35	44.9	44.9	44.9	89	41.9	0	0	---	0.00	30.222 
01:40	44.8	44.8	44.8	89	41.8	0	0	---	0.00	30.222 
01:45	44.8	44.8	44.8	89	41.8	0	0	---	0.00	30.222 
01:50	44.6	44.6	44.6	89	41.6	0	0	---	0.00	30.222 
01:55	44.5	44.5	44.5	89	41.5	0	0	---	0.00	30.222 
02:00	44.3	44.3	44.3	89	41.3	0	0	---	0.00	30.227 
02:05	44.3	44.3	44.3	89	41.3	0	0	---	0.00	30.227 
02:10	44.2	44.2	44.2	89	41.2	0	0	---	0.00	30.227 
02:15	44.1	44.1	44.1	89	41.1	0	0	---	0.00	30.227 
02:20	43.9	43.9	43.9	89	40.9	0	0	---	0.00	30.227 
02:25	43.9	43.9	43.9	89	40.9	0	0	---	0.00	30.227 
02:30	43.8	43.8	43.8	89	40.8	0	0	---	0.00	30.230 
02:35	43.8	43.8	43.8	89	40.8	0	0	---	0.00	30.230 
02:40	43.6	43.6	43.6	89	40.6	0	0	---	0.00	30.230 
02:45	43.5	43.5	43.5	89	40.5	0	0	---	0.00	30.230 
02:50	43.5	43.5	43.5	89	40.5	0	0	---	0.00	30.230 
02:55	43.5	43.5	43.5	90	40.8	0	0	---	0.00	30.230 
03:00	43.3	43.3	43.3	90	40.6	0	0	---	0.00	30.229 
03:05	43.2	43.2	43.2	90	40.5	0	0	---	0.00	30.229 
03:10	43.2	43.2	43.2	90	40.5	0	0	---	0.00	30.229 
03:15	43.1	43.1	43.1	90	40.4	0	0	---	0.00	30.224 
03:20	43.1	43.1	43.1	90	40.4	0	0	---	0.00	30.224 
03:25	42.9	42.9	42.9	90	40.2	0	0	---	0.00	30.224 
03:30	42.9	42.9	42.9	90	40.2	0	0	---	0.00	30.222 
03:35	42.9	42.9	42.9	90	40.2	0	0	---	0.00	30.222 
03:40	42.8	42.8	42.8	91	40.4	0	0	---	0.00	30.222 
03:45	42.6	42.6	42.6	91	40.2	0	0	---	0.00	30.220 
03:50	42.6	42.6	42.6	91	40.2	0	0	---	0.00	30.220 
03:55	42.5	42.5	42.5	91	40.1	0	0	---	0.00	30.220 
04:00	42.3	42.3	42.3	91	39.9	0	0	---	0.00	30.220 
04:05	42.2	42.2	42.2	91	39.8	0	0	---	0.00	30.220 
04:10	42.2	42.2	42.2	91	39.8	0	0	---	0.00	30.220 
04:15	42.2	42.2	42.2	91	39.8	0	0	---	0.00	30.224 
04:20	42.1	42.1	42.1	91	39.7	0	0	---	0.00	30.224 
04:25	42.1	42.1	42.1	91	39.7	0	0	---	0.00	30.224 
04:30	42.1	42.1	42.1	92	39.9	0	0	---	0.00	30.227 
04:35	41.9	41.9	41.9	92	39.7	0	0	---	0.00	30.227 
04:40	41.8	41.8	41.8	92	39.6	0	0	---	0.00	30.227 
04:45	41.8	41.8	41.8	92	39.6	0	0	---	0.00	30.228 
04:50	41.8	41.8	41.8	92	39.6	0	0	---	0.00	30.228 
04:55	41.6	41.6	41.6	92	39.5	0	0	---	0.00	30.228 
05:00	41.6	41.6	41.6	92	39.5	0	0	---	0.00	30.232 
05:05	41.6	41.6	41.6	92	39.5	0	0	---	0.00	30.232 
05:10	41.6	41.6	41.6	92	39.5	0	0	---	0.00	30.232 
05:15	41.6	41.6	41.6	92	39.5	0	0	---	0.00	30.234 
05:20	41.6	41.6	41.6	92	39.5	0	0	---	0.00	30.234 
05:25	41.6	41.6	41.6	92	39.5	0	0	---	0.00	30.234 
05:30	41.5	41.5	41.5	92	39.4	0	0	---	0.00	30.233 
05:35	41.5	41.5	41.5	93	39.6	0	0	---	0.00	30.233 
05:40	41.6	41.6	41.6	93	39.7	0	0	---	0.00	30.233 
05:45	41.6	41.6	41.6	93	39.7	0	0	---	0.00	30.231 
05:50	41.6	41.6	41.6	93	39.7	0	0	---	0.00	30.231 
05:55	41.6	41.6	41.6	93	39.7	0	0	---	0.00	30.231 
06:00	41.6	41.6	41.6	93	39.7	0	0	---	0.00	30.232 
06:05	41.9	41.9	41.9	93	40.0	0	0	---	0.00	30.232 
06:10	42.1	42.1	42.1	93	40.2	0	0	---	0.00	30.232 
06:15	42.2	42.2	42.2	94	40.6	0	0	---	0.00	30.238 
06:20	42.3	42.3	42.3	94	40.7	0	0	---	0.00	30.238 
06:25	42.3	42.3	42.3	94	40.7	0	0	---	0.00	30.238 
06:30	42.2	42.2	42.2	94	40.6	0	0	---	0.00	30.239 
06:35	42.1	42.1	42.1	94	40.5	0	0	---	0.00	30.239 
06:40	41.9	41.9	41.9	94	40.3	0	0	---	0.00	30.239 
06:45	41.9	41.9	41.9	94	40.3	0	0	---	0.00	30.239 
06:50	41.8	41.8	41.8	94	40.2	0	0	---	0.00	30.239 
06:55	41.6	41.6	41.6	94	40.0	0	0	---	0.00	30.239 
07:00	41.6	41.6	41.6	94	40.0	0	0	---	0.00	30.239 
07:05	41.6	41.6	41.6	94	40.0	0	0	---	0.00	30.239 
07:10	41.5	41.5	41.5	94	39.9	0	0	---	0.00	30.239 
07:15	41.5	41.5	41.5	94	39.9	0	0	---	0.00	30.251 
07:20	41.3	41.3	41.3	94	39.7	0	0	---	0.00	30.251 
07:25	41.2	41.2	41.2	94	39.6	0	0	---	0.00	30.251 
07:30	41.1	41.1	41.1	94	39.5	0	0	---	0.00	30.251 
07:35	41.1	41.1	41.1	94	39.5	0	0	---	0.00	30.251 
07:40	41.1	41.1	41.1	94	39.5	0	0	---	0.00	30.251 
07:45	40.9	40.9	40.9	94	39.3	0	0	---	0.00	30.257 
07:50	40.9	40.9	40.9	94	39.3	0	0	---	0.00	30.257 
07:55	40.9	40.9	40.9	94	39.3	0	0	---	0.00	30.257 
08:00	40.8	40.8	40.8	94	39.2	0	0	---	0.00	30.259 
08:05	40.9	40.9	40.9	94	39.3	0	0	---	0.00	30.259 
08:10	40.9	40.9	40.9	94	39.3	0	0	---	0.00	30.259 
08:15	40.9	40.9	40.9	94	39.3	0	0	---	0.00	30.264 
08:20	41.1	41.1	41.1	95	39.8	0	0	---	0.00	30.264 
08:25	41.2	41.2	41.2	95	39.9	0	0	---	0.00	30.264 
08:30	41.5	41.5	41.5	95	40.2	0	0	---	0.00	30.266 
08:35	41.8	41.8	41.8	95	40.5	0	0	---	0.00	30.266 
08:40	42.2	42.2	42.2	95	40.9	0	0	---	0.00	30.266 
08:45	42.6	42.6	42.6	95	41.3	0	0	---	0.00	30.267 
08:50	43.1	43.1	43.1	95	41.8	0	0	---	0.00	30.267 
08:55	43.6	43.6	43.6	96	42.5	0	0	---	0.00	30.267 
09:00	44.3	44.3	44.3	96	43.2	0	0	---	0.00	30.275 
09:05	44.9	44.9	44.9	96	43.8	0	0	---	0.00	30.275 
09:10	45.7	45.7	45.7	96	44.6	0	1	112	0.00	30.275 
09:15	46.8	46.8	46.8	96	45.7	0	2	112	0.00	30.276 
09:20	47.6	47.6	47.6	96	46.5	0	1	112	0.00	30.276 
09:25	48.0	48.0	48.0	96	46.9	0	2	112	0.00	30.276 
09:30	48.3	48.3	48.3	96	47.2	0	2	112	0.00	30.279 
09:35	48.8	48.8	48.8	95	47.4	0	2	112	0.00	30.279 
09:40	49.2	49.2	49.2	94	47.5	0	2	112	0.00	30.279 
09:45	49.8	49.8	49.8	93	47.9	0	2	112	0.00	30.277 
09:50	50.5	50.5	50.5	92	48.3	0	2	112	0.00	30.277 
09:55	51.1	51.1	51.1	91	48.6	0	1	112	0.00	30.277 
10:00	51.6	51.6	51.6	88	48.2	1	3	112	0.00	30.275 
10:05	52.2	52.2	52.2	88	48.8	0	2	112	0.00	30.275 
10:10	52.8	52.8	52.8	86	48.7	1	4	90	0.00	30.275 
10:15	53.6	53.6	53.6	84	48.9	0	3	90	0.00	30.278 
10:20	54.5	54.5	54.5	81	48.8	0	3	90	0.00	30.278 
10:25	55.3	55.3	55.3	79	48.9	0	3	90	0.00	30.278 
10:30	56.2	56.2	56.2	76	48.7	1	4	90	0.00	30.273 
10:35	56.7	56.7	56.7	76	49.2	1	4	90	0.00	30.273 
10:40	57.2	57.2	57.2	74	49.0	1	3	90	0.00	30.273 
10:45	57.8	57.8	57.8	72	48.8	1	4	90	0.00	30.269 
10:50	58.6	58.6	58.6	71	49.2	1	3	90	0.00	30.269 
10:55	59.2	59.2	59.2	69	49.0	1	3	90	0.00	30.269 
11:00	59.9	59.9	59.9	69	49.7	1	3	90	0.00	30.268 
11:05	60.4	60.4	60.4	65	48.6	1	3	90	0.00	30.268 
11:10	60.9	60.9	60.9	63	48.2	1	4	90	0.00	30.268 
11:15	61.2	61.2	61.2	64	48.9	1	4	90	0.00	30.266 
11:20	61.5	61.5	61.5	62	48.4	1	2	90	0.00	30.266 
11:25	61.8	61.8	61.8	63	49.1	0	2	90	0.00	30.266 
11:30	62.1	62.1	62.1	61	48.5	2	6	90	0.00	30.266 
11:35	62.4	62.4	62.4	61	48.8	1	2	90	0.00	30.266 
11:40	62.9	62.9	62.9	59	48.3	1	4	45	0.00	30.266 
11:45	63.1	63.1	63.1	61	49.4	1	3	45	0.00	30.262 
11:50	63.4	63.4	63.4	60	49.3	1	3	45	0.00	30.262 
11:55	63.7	63.7	63.7	56	47.7	1	2	45	0.00	30.262 
12:00	63.9	63.9	63.9	57	48.4	1	4	90	0.00	30.257 
12:05	64.3	64.3	64.3	55	47.8	1	3	90	0.00	30.257 
12:10	64.8	64.8	64.8	54	47.8	1	4	90	0.00	30.257 
12:15	65.2	65.2	65.2	51	46.6	1	4	90	0.00	30.257 
12:20	65.3	65.3	65.3	54	48.2	1	4	90	0.00	30.257 
12:25	65.3	65.3	65.3	53	47.7	2	4	90	0.00	30.257 
12:30	65.3	65.3	65.3	53	47.7	1	5	90	0.00	30.250 
12:35	65.2	65.2	65.2	50	46.1	3	6	90	0.00	30.250 
12:40	65.0	65.0	65.0	52	46.9	1	4	90	0.00	30.250 
12:45	65.3	65.3	65.3	51	46.7	2	6	90	0.00	30.250 
12:50	65.5	65.5	65.5	54	48.4	2	6	90	0.00	30.250 
12:55	66.0	66.0	66.0	53	48.4	1	5	90	0.00	30.250 
13:00	66.4	66.4	66.4	48	46.1	0	3	90	0.00	30.243 
13:05	67.1	67.1	67.1	48	46.7	2	6	90	0.00	30.243 
13:10	67.4	67.4	67.4	43	44.1	2	4	68	0.00	30.243 
13:15	67.3	67.3	67.3	46	45.8	2	6	90	0.00	30.236 
13:20	67.6	67.6	67.6	43	44.3	2	5	90	0.00	30.236 
13:25	67.6	67.6	67.6	44	44.9	2	6	90	0.00	30.236 
13:30	67.6	67.6	67.6	43	44.3	3	5	90	0.00	30.232 
13:35	67.8	67.8	67.8	44	45.1	2	5	90	0.00	30.232 
13:40	67.9	67.9	67.9	43	44.6	2	4	90	0.00	30.232 
13:45	68.1	68.1	68.1	43	44.7	3	6	68	0.00	30.225 
13:50	68.1	68.1	68.1	44	45.4	2	5	68	0.00	30.225 
13:55	68.4	68.4	68.4	42	44.4	2	6	90	0.00	30.225 
14:00	68.4	68.4	68.4	42	44.4	2	5	90	0.00	30.216 
14:05	68.6	68.6	68.6	43	45.2	2	5	90	0.00	30.216 
14:10	68.8	68.8	68.8	40	43.5	2	5	90	0.00	30.216 
14:15	68.9	68.9	68.9	43	45.5	2	7	90	0.00	30.213 
14:20	69.1	69.1	69.1	40	43.8	2	6	90	0.00	30.213 
14:25	69.3	69.3	69.3	42	45.2	2	6	90	0.00	30.213 
14:30	69.4	69.4	69.4	40	44.0	2	5	68	0.00	30.204 
14:35	69.4	69.4	69.4	39	43.4	2	5	90	0.00	30.204 
14:40	69.4	69.4	69.4	42	45.3	1	6	68	0.00	30.204 
14:45	69.4	69.4	69.4	39	43.4	2	9	90	0.00	30.201 
14:50	69.6	69.6	69.6	42	45.5	2	5	90	0.00	30.201 
14:55	69.8	69.8	69.8	40	44.4	1	5	90	0.00	30.201 
15:00	69.8	69.8	69.8	39	43.7	1	3	90	0.00	30.198 
15:05	69.9	69.9	69.9	40	44.5	1	3	90	0.00	30.198 
15:10	69.9	69.9	69.9	39	43.8	2	5	90	0.00	30.198 
15:15	69.8	69.8	69.8	39	43.7	2	9	90	0.00	30.194 
15:20	69.8	69.8	69.8	39	43.7	2	3	90	0.00	30.194 
15:25	69.9	69.9	69.9	38	43.1	1	4	90	0.00	30.194 
15:30	70.1	70.1	70.1	37	42.6	1	4	68	0.00	30.190 
15:35	70.1	70.1	70.1	39	44.0	2	6	112	0.00	30.190 
15:40	70.1	70.1	70.1	36	41.9	2	5	112	0.00	30.190 
15:45	70.1	70.1	70.1	37	42.6	2	9	112	0.00	30.187 
15:50	70.1	70.1	70.1	36	41.9	2	9	90	0.00	30.187 
15:55	70.1	70.1	70.1	35	41.2	1	3	90	0.00	30.187 
16:00	70.1	70.1	70.1	35	41.2	1	5	90	0.00	30.188 
16:05	70.3	70.3	70.3	32	39.0	2	4	90	0.00	30.188 
16:10	70.1	70.1	70.1	34	40.4	2	6	90	0.00	30.188 
16:15	70.3	70.3	70.3	35	41.3	1	5	90	0.00	30.186 
16:20	70.3	70.3	70.3	36	42.1	1	4	90	0.00	30.186 
16:25	70.3	70.3	70.3	34	40.6	2	6	90	0.00	30.186 
16:30	70.3	70.3	70.3	35	41.3	2	6	90	0.00	30.183 
16:35	70.3	70.3	70.3	33	39.8	2	6	90	0.00	30.183 
16:40	70.3	70.3	70.3	33	39.8	1	3	90	0.00	30.183 
16:45	70.1	70.1	70.1	32	38.9	3	7	90	0.00	30.182 
16:50	70.1	70.1	70.1	31	38.1	2	6	90	0.00	30.182 
16:55	69.9	69.9	69.9	34	40.2	1	2	90	0.00	30.182 
17:00	69.9	69.9	69.9	32	38.7	1	4	90	0.00	30.177 
17:05	69.9	69.9	69.9	34	40.2	1	4	90	0.00	30.177 
17:10	69.9	69.9	69.9	30	37.0	3	7	90	0.00	30.177 
17:15	69.8	69.8	69.8	29	36.1	1	3	90	0.00	30.179 
17:20	69.8	69.8	69.8	29	36.1	1	3	90	0.00	30.179 
17:25	69.6	69.6	69.6	31	37.6	0	3	90	0.00	30.179 
17:30	69.6	69.6	69.6	31	37.6	1	5	68	0.00	30.179 
17:35	69.6	69.6	69.6	31	37.6	1	4	90	0.00	30.179 
17:40	69.4	69.4	69.4	30	36.6	2	4	90	0.00	30.179 
17:45	69.3	69.3	69.3	31	37.4	1	4	90	0.00	30.181 
17:50	69.1	69.1	69.1	32	38.0	1	4	90	0.00	30.181 
17:55	69.1	69.1	69.1	31	37.2	1	2	90	0.00	30.181 
18:00	68.9	68.9	68.9	32	37.8	1	4	90	0.00	30.184 
18:05	68.8	68.8	68.8	33	38.5	1	3	90	0.00	30.184 
18:10	68.8	68.8	68.8	33	38.5	1	4	90	0.00	30.184 
18:15	68.6	68.6	68.6	33	38.3	1	4	90	0.00	30.181 
18:20	68.4	68.4	68.4	34	38.9	0	2	90	0.00	30.181 
18:25	68.3	68.3	68.3	34	38.8	1	2	90	0.00	30.181 
18:30	68.1	68.1	68.1	35	39.4	0	2	90	0.00	30.182 
18:35	67.8	67.8	67.8	35	39.1	0	2	90	0.00	30.182 
18:40	67.6	67.6	67.6	38	41.1	0	1	90	0.00	30.182 
18:45	67.1	67.1	67.1	39	41.3	0	1	90	0.00	30.181 
18:50	66.6	66.6	66.6	40	41.5	0	1	90	0.00	30.181 
18:55	66.0	66.0	66.0	41	41.6	0	1	90	0.00	30.181 
19:00	65.5	65.5	65.5	42	41.8	0	0	---	0.00	30.180 
19:05	65.0	65.0	65.0	42	41.3	0	0	---	0.00	30.180 
19:10	64.3	64.3	64.3	44	41.9	0	0	---	0.00	30.180 
19:15	63.7	63.7	63.7	45	42.0	0	0	---	0.00	30.185 
19:20	62.9	62.9	62.9	46	41.8	0	0	---	0.00	30.185 
19:25	62.1	62.1	62.1	48	42.2	0	0	---	0.00	30.185 
19:30	61.3	61.3	61.3	49	42.0	0	0	---	0.00	30.188 
19:35	60.7	60.7	60.7	50	41.9	0	0	---	0.00	30.188 
19:40	60.1	60.1	60.1	51	41.9	0	0	---	0.00	30.188 
19:45	59.6	59.6	59.6	53	42.4	0	0	---	0.00	30.192 
19:50	59.2	59.2	59.2	53	42.1	0	0	---	0.00	30.192 
19:55	58.6	58.6	58.6	55	42.5	0	0	---	0.00	30.192 
20:00	58.1	58.1	58.1	56	42.5	0	0	---	0.00	30.195 
20:05	57.6	57.6	57.6	58	42.9	0	0	---	0.00	30.195 
20:10	57.0	57.0	57.0	58	42.4	0	0	---	0.00	30.195 
20:15	56.7	56.7	56.7	60	43.0	0	0	---	0.00	30.193 
20:20	56.3	56.3	56.3	61	43.0	0	0	---	0.00	30.193 
20:25	56.0	56.0	56.0	62	43.2	0	0	---	0.00	30.193 
20:30	55.6	55.6	55.6	63	43.2	0	0	---	0.00	30.192 
20:35	55.3	55.3	55.3	64	43.3	0	0	---	0.00	30.192 
20:40	55.0	55.0	55.0	65	43.5	0	0	---	0.00	30.192 
20:45	54.7	54.7	54.7	66	43.6	0	0	---	0.00	30.193 
20:50	54.4	54.4	54.4	66	43.3	0	0	---	0.00	30.193 
20:55	54.2	54.2	54.2	68	43.9	0	0	---	0.00	30.193 
21:00	54.1	54.1	54.1	69	44.2	0	1	90	0.00	30.197 
21:05	54.2	54.2	54.2	67	43.5	0	1	90	0.00	30.197 
21:10	54.4	54.4	54.4	65	42.9	0	1	90	0.00	30.197 
21:15	54.5	54.5	54.5	65	43.0	0	0	---	0.00	30.192 
21:20	54.8	54.8	54.8	64	42.9	0	1	90	0.00	30.192 
21:25	55.4	55.4	55.4	63	43.0	0	2	90	0.00	30.192 
21:30	55.9	55.9	55.9	63	43.5	0	2	90	0.00	30.190 
21:35	56.2	56.2	56.2	63	43.8	0	1	90	0.00	30.190 
21:40	56.3	56.3	56.3	63	43.9	0	2	90	0.00	30.190 
21:45	56.2	56.2	56.2	64	44.2	0	1	90	0.00	30.189 
21:50	56.0	56.0	56.0	63	43.6	0	3	90	0.00	30.189 
21:55	55.9	55.9	55.9	64	43.9	0	2	90	0.00	30.189 
22:00	55.7	55.7	55.7	64	43.7	0	1	90	0.00	30.189 
22:05	55.6	55.6	55.6	65	44.0	0	1	90	0.00	30.189 
22:10	55.3	55.3	55.3	65	43.7	0	0	---	0.00	30.189 
22:15	55.1	55.1	55.1	65	43.5	0	0	---	0.00	30.185 
22:20	54.8	54.8	54.8	66	43.7	0	0	---	0.00	30.185 
22:25	54.7	54.7	54.7	66	43.6	0	0	---	0.00	30.185 
22:30	54.4	54.4	54.4	67	43.7	0	0	---	0.00	30.184 
22:35	54.1	54.1	54.1	68	43.8	0	0	---	0.00	30.184 
22:40	53.8	53.8	53.8	68	43.5	0	0	---	0.00	30.184 
22:45	53.6	53.6	53.6	68	43.3	0	0	---	0.00	30.185 
22:50	53.5	53.5	53.5	68	43.2	0	0	---	0.00	30.185 
22:55	53.2	53.2	53.2	69	43.3	0	0	---	0.00	30.185 
23:00	52.9	52.9	52.9	69	43.0	0	0	---	0.00	30.186 
23:05	52.8	52.8	52.8	70	43.3	0	0	---	0.00	30.186 
23:10	52.5	52.5	52.5	70	43.0	0	0	---	0.00	30.186 
23:15	52.2	52.2	52.2	71	43.1	0	0	---	0.00	30.184 
23:20	51.9	51.9	51.9	72	43.2	0	0	---	0.00	30.184 
23:25	51.6	51.6	51.6	73	43.2	0	0	---	0.00	30.184 
23:30	51.3	51.3	51.3	74	43.3	0	0	---	0.00	30.183 
23:35	51.1	51.1	51.1	75	43.5	0	0	---	0.00	30.183 
23:40	50.8	50.8	50.8	75	43.2	0	0	---	0.00	30.183 
23:45	50.5	50.5	50.5	76	43.2	0	0	---	0.00	30.182 
23:50	50.2	50.2	50.2	76	42.9	0	0	---	0.00	30.182 
23:55	49.9	49.9	49.9	77	43.0	0	0	---	0.00	30.182 

CoCoRaHS
IN-AL-39
A2 Web Hosting
Creative Commons License
GoDaddy
search engine by freefind advanced

loaded 2018-11-16 00:10:30 • last modified 2010-11-18 10:43:29
Privacy PolicyDisclaimer
• wx.awcolley.com is powered by PmWiki v.2002016 •
• all content (unless otherwise noted) © 2018 A W Colley